Data for 07/24/2008

Time Sea-Level Adjusted Pressure Absolute Pressure Temperature Relative Humidity Dew Point   
(mb) (inHg) (mb) (inHg) (C) (F) (%) (C) (F)
00:05 1017 30.03 846 24.98 18.3 64.9 50 7.9 46.2
00:10 1017 30.03 846 24.98 18.1 64.7 51 8 46.4
00:15 1017 30.03 846 24.98 18.2 64.7 51 8 46.4
00:20 1017 30.03 846 24.98 18.2 64.8 51 7.9 46.3
00:25 1017 30.03 846 24.98 18.3 64.9 52 8.3 46.9
00:30 1017 30.03 846 24.98 18.1 64.6 52 8.3 46.9
00:35 1017 30.03 846 24.98 18 64.4 52 8.1 46.7
00:40 1017 30.03 846 24.98 18.3 64.9 50 7.8 46
00:45 1017 30.03 847 25.01 18.4 65.2 49 7.8 46
00:50 1017 30.03 847 25.01 18.7 65.6 48 7.6 45.7
00:55 1017 30.03 847 25.01 18.8 65.9 49 7.9 46.2
01:00 1018 30.06 847 25.01 18.7 65.6 50 8.2 46.7
01:05 1018 30.06 847 25.01 18.5 65.3 49 7.6 45.7
01:10 1018 30.06 847 25.01 18.6 65.5 47 7.3 45.1
01:15 1018 30.06 847 25.01 18.8 65.8 45 6.9 44.4
01:20 1018 30.06 848 25.04 19 66.1 46 7.3 45.1
01:25 1018 30.06 848 25.04 18.7 65.7 49 8 46.4
01:30 1018 30.06 848 25.04 18.6 65.5 49 8 46.3
01:35 1019 30.09 848 25.04 18.7 65.7 51 8.4 47.1
01:40 1019 30.09 848 25.04 18.5 65.2 53 8.8 47.8
01:45 1019 30.09 848 25.04 18.2 64.8 53 8.7 47.6
01:50 1019 30.09 848 25.04 18.2 64.8 55 9.1 48.3
01:55 1019 30.09 848 25.04 18.1 64.7 56 9.2 48.6
02:00 1019 30.09 848 25.04 17.9 64.3 55 8.9 48
02:05 1019 30.09 848 25.04 18 64.5 55 9 48.2
02:10 1019 30.09 848 25.04 18.2 64.7 55 9 48.2
02:15 1019 30.09 848 25.04 18.1 64.5 56 9.1 48.5
02:20 1019 30.09 848 25.04 17.9 64.1 56 9.1 48.3
02:25 1019 30.09 848 25.04 17.6 63.6 58 9.4 48.9
02:30 1019 30.09 848 25.04 17.3 63.1 61 9.7 49.5
02:35 1019 30.09 848 25.04 16.7 62 65 10.2 50.3
02:40 1019 30.09 848 25.04 16.7 62 61 9.1 48.4
02:45 1019 30.09 848 25.04 16.7 62.1 64 9.9 49.9
02:50 1019 30.09 848 25.04 16.2 61.2 63 9.3 48.7
02:55 1019 30.09 848 25.04 16 60.9 64 9.3 48.8
03:00 1019 30.09 848 25.04 15.9 60.5 65 9.4 49
03:05 1019 30.09 848 25.04 15.5 59.9 69 10 50
03:10 1019 30.09 848 25.04 15 59 71 9.8 49.7
03:15 1019 30.09 848 25.04 14.5 58 70 9.2 48.5
03:20 1019 30.09 848 25.04 14.6 58.2 69 9.1 48.3
03:25 1019 30.09 848 25.04 14.6 58.4 69 9.1 48.3
03:30 1019 30.09 849 25.07 14.6 58.2 69 9.1 48.3
03:35 1019 30.09 849 25.07 14.5 58 71 9.2 48.6
03:40 1019 30.09 849 25.07 14.2 57.5 72 9.3 48.7
03:45 1019 30.09 849 25.07 14.1 57.3 72 9.1 48.3
03:50 1019 30.09 849 25.07 14.2 57.5 70 8.9 48
03:55 1019 30.09 849 25.07 14.4 57.9 70 9 48.1
04:00 1020 30.12 849 25.07 14.4 57.9 67 8.5 47.3
04:05 1020 30.12 849 25.07 14.4 57.8 67 8.4 47.1
04:10 1020 30.12 849 25.07 14.4 57.9 66 8.3 46.9
04:15 1020 30.12 849 25.07 14.4 57.9 68 8.7 47.6
04:20 1020 30.12 849 25.07 14.3 57.7 69 8.8 47.8
04:25 1020 30.12 849 25.07 14.2 57.6 69 8.6 47.5
04:30 1020 30.12 849 25.07 14.1 57.3 71 9 48.2
04:35 1020 30.12 849 25.07 13.6 56.6 73 8.9 47.9
04:40 1020 30.12 849 25.07 13.5 56.3 73 8.8 47.9
04:45 1020 30.12 849 25.07 13.4 56 75 9.1 48.4
04:50 1020 30.12 849 25.07 12.6 54.7 78 8.9 48.1
04:55 1020 30.12 849 25.07 12.4 54.4 77 8.5 47.3
05:00 1020 30.12 849 25.07 12.7 54.8 76 8.6 47.5
05:05 1020 30.12 849 25.07 12.5 54.6 76 8.5 47.3
05:10 1020 30.12 849 25.07 12.6 54.7 75 8.3 46.9
05:15 1020 30.12 849 25.07 12.9 55.1 75 8.5 47.3
05:20 1020 30.12 849 25.07 13 55.3 75 8.6 47.5
05:25 1020 30.12 849 25.07 12.9 55.2 75 8.5 47.4
05:30 1020 30.12 849 25.07 12.8 55 75 8.6 47.4
05:35 1020 30.12 849 25.07 12.5 54.5 77 8.6 47.4
05:40 1020 30.12 849 25.07 12.4 54.4 77 8.5 47.3
05:45 1020 30.12 850 25.1 12.4 54.3 76 8.3 46.9
05:50 1020 30.12 850 25.1 12.5 54.6 75 8.3 47
05:55 1020 30.12 850 25.1 12.3 54.2 77 8.4 47.2
06:00 1020 30.12 850 25.1 12.1 53.8 77 8.3 46.9
06:05 1020 30.12 850 25.1 12.2 53.9 77 8.3 46.9
06:10 1021 30.15 850 25.1 12.2 53.9 77 8.2 46.8
06:15 1021 30.15 850 25.1 12.2 54 77 8.2 46.8
06:20 1021 30.15 850 25.1 12.4 54.2 75 8 46.4
06:25 1021 30.15 850 25.1 12.7 54.8 73 8.1 46.5
06:30 1021 30.15 850 25.1 12.8 55 74 8.2 46.8
06:35 1021 30.15 850 25.1 12.8 55 74 8.2 46.7
06:40 1021 30.15 850 25.1 12.7 54.8 73 8 46.5
06:45 1021 30.15 850 25.1 12.7 54.9 73 8.1 46.5
06:50 1021 30.15 850 25.1 12.9 55.1 73 8.1 46.6
06:55 1021 30.15 850 25.1 13 55.3 73 8.2 46.7
07:00 1021 30.15 850 25.1 13.1 55.6 73 8.5 47.3
07:05 1021 30.15 850 25.1 13 55.3 74 8.4 47.1
07:10 1021 30.15 850 25.1 13.1 55.6 74 8.6 47.5
07:15 1021 30.15 850 25.1 13.3 55.9 73 8.7 47.6
07:20 1021 30.15 850 25.1 13.6 56.4 72 8.6 47.5
07:25 1021 30.15 850 25.1 14 57.2 70 8.7 47.7
07:30 1021 30.15 850 25.1 14.5 58 70 9.1 48.4
07:35 1021 30.15 850 25.1 15 59.1 68 9.3 48.8
07:40 1021 30.15 850 25.1 15.4 59.8 67 9.4 48.9
07:45 1021 30.15 850 25.1 15.6 60 66 9.3 48.7
07:50 1021 30.15 851 25.13 16 60.8 65 9.6 49.2
07:55 1021 30.15 851 25.13 16.2 61.1 65 9.8 49.6
08:00 1021 30.15 851 25.13 16 60.8 67 10 49.9
08:05 1021 30.15 851 25.13 16 60.7 67 9.9 49.8
08:10 1021 30.15 851 25.13 15.9 60.6 66 9.7 49.5
08:15 1021 30.15 851 25.13 15.9 60.5 66 9.7 49.4
08:20 1021 30.15 851 25.13 15.9 60.6 66 9.7 49.5
08:25 1022 30.18 851 25.13 16.3 61.4 63 9.4 48.9
08:30 1021 30.15 851 25.13 17.4 63.3 60 9.6 49.3
08:35 1021 30.15 851 25.13 17.9 64.1 59 9.7 49.5
08:40 1022 30.18 851 25.13 18.2 64.7 58 10 49.9
08:45 1022 30.18 851 25.13 18.4 65.1 59 10.3 50.6
08:50 1022 30.18 851 25.13 17.9 64.2 61 10.4 50.7
08:55 1022 30.18 851 25.13 17.2 63 62 10 50.1
09:00 1022 30.18 851 25.13 17.6 63.7 61 10.1 50.2
09:05 1022 30.18 851 25.13 18.5 65.4 59 10.4 50.7
09:10 1022 30.18 851 25.13 19.3 66.7 57 10.5 51
09:15 1022 30.18 851 25.13 19.9 67.8 55 10.7 51.3
09:20 1022 30.18 851 25.13 20.1 68.2 54 10.6 51.1
09:25 1022 30.18 851 25.13 20.2 68.3 55 10.8 51.5
09:30 1022 30.18 851 25.13 20 68 56 11 51.8
09:35 1022 30.18 851 25.13 19.9 67.8 56 10.9 51.6
09:40 1022 30.18 851 25.13 20 68 55 10.8 51.5
09:45 1022 30.18 851 25.13 20.6 69.1 54 11.2 52.1
09:50 1022 30.18 851 25.13 20.4 68.6 54 10.9 51.7
09:55 1022 30.18 851 25.13 20.4 68.6 51 10.1 50.2
10:00 1022 30.18 851 25.13 20.2 68.4 54 10.7 51.3
10:05 1022 30.18 851 25.13 20.4 68.8 49 9.5 49.1
10:10 1022 30.18 851 25.13 20 67.9 53 10.3 50.5
10:15 1022 30.18 851 25.13 20.2 68.3 46 8.2 46.8
10:20 1022 30.18 851 25.13 21.2 70.2 45 8.9 48
10:25 1022 30.18 851 25.13 21.3 70.4 45 9 48.2
10:30 1022 30.18 851 25.13 22 71.5 42 8.5 47.4
10:35 1022 30.18 851 25.13 22.2 71.9 43 9.2 48.5
10:40 1022 30.18 851 25.13 21.7 71 45 9.4 48.9
10:45 1022 30.18 851 25.13 21.9 71.3 43 9 48.3
10:50 1022 30.18 851 25.13 22.3 72.1 39 7.7 45.8
10:55 1022 30.18 851 25.13 22.7 72.8 40 8.7 47.6
11:00 1022 30.18 851 25.13 22.9 73.3 41 9.2 48.5
11:05 1022 30.18 851 25.13 21.7 71 44 8.9 48
11:10 1022 30.18 851 25.13 21.2 70.2 43 8.2 46.8
11:15 1022 30.18 851 25.13 21.8 71.3 37 6.5 43.8
11:20 1022 30.18 851 25.13 22.9 73.2 36 7.3 45.2
11:25 1022 30.18 851 25.13 23.2 73.8 32 6 42.7
11:30 1022 30.18 851 25.13 22.8 73.1 38 7.8 46
11:35 1022 30.18 851 25.13 22.9 73.1 41 9.2 48.5
11:40 1022 30.18 851 25.13 23.2 73.8 40 9 48.2
11:45 1022 30.18 851 25.13 23.3 73.9 39 8.7 47.7
11:50 1022 30.18 851 25.13 22.9 73.3 37 7.8 46.1
11:55 1022 30.18 851 25.13 22 71.7 39 7.5 45.5
12:00 1022 30.18 851 25.13 22.2 72 40 8 46.4
12:05 1022 30.18 851 25.13 22.2 71.9 38 7.2 44.9
12:10 1022 30.18 851 25.13 22.6 72.7 38 7.9 46.2
12:15 1022 30.18 851 25.13 22.4 72.3 40 8.5 47.3
12:20 1022 30.18 851 25.13 23 73.4 38 8.1 46.5
12:25 1022 30.18 851 25.13 22.1 71.7 38 7.4 45.3
12:30 1022 30.18 851 25.13 22.6 72.7 38 7.7 45.8
12:35 1022 30.18 851 25.13 23 73.3 37 7.8 46.1
12:40 1022 30.18 851 25.13 22.6 72.7 36 7 44.6
12:45 1022 30.18 851 25.13 23.2 73.8 35 7.1 44.9
12:50 1022 30.18 851 25.13 23.6 74.5 35 7.4 45.4
12:55 1022 30.18 851 25.13 24 75.1 34 7.3 45.1
13:00 1021 30.15 851 25.13 24 75.2 31 6.3 43.3
13:05 1021 30.15 851 25.13 24.1 75.4 32 6.8 44.2
13:10 1021 30.15 851 25.13 24.2 75.5 32 6.6 43.9
13:15 1021 30.15 851 25.13 24.5 76.2 30 6.1 42.9
13:20 1021 30.15 851 25.13 23.4 74 34 6.7 44
13:25 1021 30.15 851 25.13 23 73.3 33 5.9 42.6
13:30 1021 30.15 851 25.13 23.8 74.8 32 6.3 43.3
13:35 1021 30.15 850 25.1 23.6 74.4 32 6 42.8
13:40 1021 30.15 850 25.1 23.5 74.3 33 6.5 43.7
13:45 1021 30.15 851 25.13 24 75.1 33 6.7 44.1
13:50 1021 30.15 850 25.1 24.1 75.3 31 6.2 43.2
13:55 1021 30.15 850 25.1 24.6 76.2 31 6.7 44
14:00 1021 30.15 850 25.1 24.7 76.4 31 6.8 44.2
14:05 1021 30.15 850 25.1 24.8 76.6 31 6.6 43.8
14:10 1021 30.15 850 25.1 24.7 76.5 30 6.3 43.3
14:15 1021 30.15 850 25.1 24.6 76.2 32 6.8 44.3
14:20 1021 30.15 850 25.1 24.1 75.4 31 6 42.7
14:25 1021 30.15 850 25.1 24.9 76.9 30 6.5 43.8
14:30 1021 30.15 850 25.1 25.5 77.8 30 6.7 44
14:35 1021 30.15 850 25.1 25.1 77.1 29 6 42.7
14:40 1021 30.15 850 25.1 25.1 77.2 30 6.7 44.1
14:45 1021 30.15 850 25.1 25.3 77.6 29 6.2 43.2
14:50 1021 30.15 850 25.1 24.9 76.8 32 7.1 44.9
14:55 1021 30.15 850 25.1 24.2 75.5 32 6.6 43.8
15:00 1021 30.15 850 25.1 24.3 75.7 30 5.6 42.1
15:05 1021 30.15 850 25.1 25.3 77.6 31 7.2 44.9
15:10 1021 30.15 850 25.1 25 77 32 7.2 45
15:15 1021 30.15 850 25.1 25.5 77.8 29 6.4 43.5
15:20 1021 30.15 850 25.1 25.7 78.2 30 6.9 44.4
15:25 1021 30.15 850 25.1 25.7 78.2 29 6.6 43.8
15:30 1021 30.15 850 25.1 26.3 79.3 29 7 44.7
15:35 1021 30.15 850 25.1 25.9 78.7 29 6.8 44.2
15:40 1021 30.15 850 25.1 25.6 78 30 6.9 44.5
15:45 1021 30.15 850 25.1 25.5 77.9 30 7.1 44.8
15:50 1021 30.15 850 25.1 26 78.7 29 7 44.6
15:55 1021 30.15 850 25.1 26.3 79.3 29 7 44.6
16:00 1021 30.15 850 25.1 26.5 79.7 28 6.7 44.1
16:05 1021 30.15 850 25.1 26.3 79.3 29 7.3 45.2
16:10 1021 30.15 850 25.1 25.5 77.9 29 6.4 43.6
16:15 1021 30.15 850 25.1 26.1 79 28 6.5 43.8
16:20 1021 30.15 850 25.1 26.4 79.5 28 6.6 43.8
16:25 1021 30.15 850 25.1 26.3 79.3 27 6.2 43.2
16:30 1021 30.15 850 25.1 26.2 79.2 26 5.7 42.3
16:35 1021 30.15 850 25.1 26.6 79.9 26 5.9 42.7
16:40 1021 30.15 850 25.1 26.8 80.2 24 4.9 40.8
16:45 1021 30.15 850 25.1 27.4 81.3 23 4.7 40.4
16:50 1021 30.15 850 25.1 26.9 80.5 24 4.9 40.9
16:55 1020 30.12 850 25.1 26.8 80.2 24 4.6 40.3
17:00 1020 30.12 850 25.1 26.8 80.2 22 3.4 38.1
17:05 1020 30.12 850 25.1 26.6 80 23 4.1 39.5
17:10 1020 30.12 850 25.1 26.5 79.8 24 4.6 40.2
17:15 1020 30.12 850 25.1 26.7 80.1 24 4.6 40.2
17:20 1020 30.12 850 25.1 26.7 80.1 23 4 39.3
17:25 1020 30.12 850 25.1 26.7 80 23 4 39.1
17:30 1020 30.12 850 25.1 27.1 80.7 23 4.4 40
17:35 1020 30.12 850 25.1 27 80.6 21 3.2 37.8
17:40 1020 30.12 850 25.1 27 80.7 22 4.1 39.3
17:45 1020 30.12 849 25.07 27.2 80.9 22 4.1 39.4
17:50 1020 30.12 849 25.07 27 80.6 22 4.1 39.3
17:55 1020 30.12 849 25.07 27.1 80.9 22 4 39.3
18:00 1020 30.12 849 25.07 26.9 80.4 22 4 39.1
18:05 1020 30.12 849 25.07 26.6 79.9 24 4.6 40.4
18:10 1020 30.12 849 25.07 26.5 79.7 23 4.2 39.6
18:15 1020 30.12 849 25.07 26.8 80.3 23 4.5 40.1
18:20 1020 30.12 849 25.07 26.9 80.4 23 4 39.3
18:25 1020 30.12 849 25.07 26.9 80.4 23 4.6 40.2
18:30 1020 30.12 849 25.07 27 80.6 22 3.9 39.1
18:35 1020 30.12 849 25.07 26.9 80.3 24 4.8 40.6
18:40 1020 30.12 849 25.07 26.4 79.6 23 4.2 39.5
18:45 1020 30.12 849 25.07 26.2 79.1 23 3.8 38.8
18:50 1020 30.12 849 25.07 26.2 79.1 24 4.3 39.8
18:55 1020 30.12 849 25.07 26.2 79.1 25 4.6 40.3
19:00 1020 30.12 850 25.1 26.2 79.1 24 4.5 40.1
19:05 1020 30.12 850 25.1 26.4 79.4 25 5.1 41.2
19:10 1020 30.12 850 25.1 26.1 78.9 25 5.1 41.1
19:15 1020 30.12 850 25.1 25.5 77.8 26 5.1 41.1
19:20 1020 30.12 850 25.1 25.1 77.1 26 4.7 40.4
19:25 1020 30.12 850 25.1 25 77.1 27 5.1 41.2
19:30 1020 30.12 850 25.1 24.9 76.7 27 4.8 40.6
19:35 1020 30.12 850 25.1 24.9 76.8 27 4.9 40.9
19:40 1020 30.12 850 25.1 24.8 76.6 27 5 41
19:45 1021 30.15 850 25.1 24.6 76.2 28 5.2 41.3
19:50 1021 30.15 850 25.1 24.5 76.1 27 4.6 40.3
19:55 1021 30.15 850 25.1 24.4 75.9 29 5.6 42
20:00 1021 30.15 850 25.1 24.4 75.9 30 5.7 42.3
20:05 1021 30.15 850 25.1 24.3 75.7 30 5.9 42.5
20:10 1021 30.15 850 25.1 24.1 75.4 29 5.4 41.8
20:15 1021 30.15 850 25.1 24 75.1 30 5.8 42.4
20:20 1021 30.15 850 25.1 23.9 74.9 30 5.5 41.9
20:25 1021 30.15 850 25.1 23.7 74.6 30 5.2 41.3
20:30 1021 30.15 850 25.1 23.5 74.4 30 5.3 41.5
20:35 1021 30.15 850 25.1 23.3 74 31 5.6 42.1
20:40 1021 30.15 850 25.1 23.2 73.8 32 5.8 42.5
20:45 1021 30.15 850 25.1 22.9 73.3 32 5.8 42.4
20:50 1021 30.15 850 25.1 22.6 72.6 39 8 46.4
20:55 1021 30.15 850 25.1 22.1 71.7 40 8 46.5
21:00 1021 30.15 850 25.1 21.8 71.2 41 8.2 46.8
21:05 1021 30.15 850 25.1 21.8 71.3 38 6.9 44.3
21:10 1021 30.15 850 25.1 22 71.6 41 8.2 46.8
21:15 1021 30.15 850 25.1 21.6 71 39 7.2 44.9
21:20 1021 30.15 850 25.1 21.2 70.1 48 10 50.1
21:25 1021 30.15 850 25.1 20.1 68.1 51 9.8 49.6
21:30 1021 30.15 851 25.13 19.8 67.6 48 8.7 47.7
21:35 1022 30.18 851 25.13 19.4 66.8 54 10.1 50.1
21:40 1022 30.18 851 25.13 19.1 66.4 46 7.2 45
21:45 1022 30.18 851 25.13 19.9 67.8 42 6.6 43.8
21:50 1022 30.18 851 25.13 20 68 42 7 44.6
21:55 1022 30.18 851 25.13 19.9 67.9 43 7.3 45.1
22:00 1022 30.18 851 25.13 19.9 67.8 44 7.5 45.5
22:05 1022 30.18 851 25.13 19.8 67.6 45 7.7 45.9
22:10 1022 30.18 851 25.13 19.6 67.2 45 7.5 45.5
22:15 1022 30.18 851 25.13 19.5 67.1 46 7.6 45.6
22:20 1022 30.18 851 25.13 19.4 66.9 45 7.3 45.2
22:25 1022 30.18 851 25.13 19.3 66.8 45 7.1 44.7
22:30 1022 30.18 851 25.13 19.3 66.8 45 7.2 45
22:35 1022 30.18 851 25.13 19.2 66.5 45 7.2 45
22:40 1022 30.18 851 25.13 19 66.3 46 7.2 44.9
22:45 1022 30.18 851 25.13 19 66.2 46 7.1 44.8
22:50 1022 30.18 852 25.16 18.9 66 46 7.1 44.7
22:55 1022 30.18 852 25.16 18.8 65.8 45 6.8 44.3
23:00 1022 30.18 851 25.13 18.7 65.6 46 7.1 44.7
23:05 1022 30.18 851 25.13 18.5 65.3 46 6.8 44.2
23:10 1022 30.18 851 25.13 18.5 65.3 46 6.8 44.2
23:15 1022 30.18 851 25.13 18.5 65.2 46 6.7 44
23:20 1022 30.18 851 25.13 18.5 65.3 46 6.8 44.3
23:25 1022 30.18 851 25.13 18.3 65 47 6.9 44.4
23:30 1022 30.18 851 25.13 18.3 64.9 47 6.9 44.5
23:35 1022 30.18 851 25.13 18.3 64.9 48 7.1 44.8
23:40 1022 30.18 851 25.13 18.2 64.8 48 7.2 44.9
23:45 1022 30.18 851 25.13 18.2 64.7 48 7.2 45
23:50 1022 30.18 851 25.13 18.2 64.7 49 7.4 45.3
23:55 1022 30.18 851 25.13 18.2 64.7 48 7.2 45
24:00 1022 30.18 851 25.13 18.1 64.6 49 7.3 45.1